sensor_id;sensor_type;location;lat;lon;timestamp;P1;durP1;ratioP1;P2;durP2;ratioP2
58669;SDS011;44439;47.924;10.198;2022-10-16T00:02:33;4.45;;;2.40;;
58669;SDS011;44439;47.924;10.198;2022-10-16T00:05:19;9.45;;;2.30;;
58669;SDS011;44439;47.924;10.198;2022-10-16T00:08:05;7.10;;;1.65;;
58669;SDS011;44439;47.924;10.198;2022-10-16T00:10:51;7.07;;;2.10;;
58669;SDS011;44439;47.924;10.198;2022-10-16T00:13:37;12.35;;;10.30;;
58669;SDS011;44439;47.924;10.198;2022-10-16T00:16:24;30.52;;;27.25;;
58669;SDS011;44439;47.924;10.198;2022-10-16T00:19:10;26.60;;;21.20;;
58669;SDS011;44439;47.924;10.198;2022-10-16T00:21:57;32.38;;;25.83;;
58669;SDS011;44439;47.924;10.198;2022-10-16T00:24:43;18.52;;;13.77;;
58669;SDS011;44439;47.924;10.198;2022-10-16T00:27:28;21.75;;;15.48;;
58669;SDS011;44439;47.924;10.198;2022-10-16T00:30:14;20.08;;;11.48;;
58669;SDS011;44439;47.924;10.198;2022-10-16T00:33:00;13.85;;;8.02;;
58669;SDS011;44439;47.924;10.198;2022-10-16T00:35:45;10.75;;;6.38;;
58669;SDS011;44439;47.924;10.198;2022-10-16T00:38:31;6.13;;;2.97;;
58669;SDS011;44439;47.924;10.198;2022-10-16T00:41:17;6.60;;;3.15;;
58669;SDS011;44439;47.924;10.198;2022-10-16T00:44:40;5.60;;;3.03;;
58669;SDS011;44439;47.924;10.198;2022-10-16T00:50:24;4.10;;;2.13;;
58669;SDS011;44439;47.924;10.198;2022-10-16T00:53:13;4.93;;;2.20;;
58669;SDS011;44439;47.924;10.198;2022-10-16T00:55:59;3.47;;;1.67;;
58669;SDS011;44439;47.924;10.198;2022-10-16T00:58:45;2.83;;;1.90;;
58669;SDS011;44439;47.924;10.198;2022-10-16T01:01:31;4.85;;;1.75;;
58669;SDS011;44439;47.924;10.198;2022-10-16T01:04:17;5.07;;;1.65;;
58669;SDS011;44439;47.924;10.198;2022-10-16T01:10:27;5.63;;;1.38;;
58669;SDS011;44439;47.924;10.198;2022-10-16T01:13:18;2.80;;;1.27;;
58669;SDS011;44439;47.924;10.198;2022-10-16T01:16:08;5.32;;;1.45;;
58669;SDS011;44439;47.924;10.198;2022-10-16T01:19:01;4.00;;;1.42;;
58669;SDS011;44439;47.924;10.198;2022-10-16T01:21:53;1.63;;;1.13;;
58669;SDS011;44439;47.924;10.198;2022-10-16T01:24:40;8.23;;;1.40;;
58669;SDS011;44439;47.924;10.198;2022-10-16T01:27:27;5.43;;;1.20;;
58669;SDS011;44439;47.924;10.198;2022-10-16T01:30:17;3.20;;;1.60;;
58669;SDS011;44439;47.924;10.198;2022-10-16T01:33:23;2.35;;;1.10;;
58669;SDS011;44439;47.924;10.198;2022-10-16T01:36:11;3.40;;;1.13;;
58669;SDS011;44439;47.924;10.198;2022-10-16T01:39:00;3.00;;;1.02;;
58669;SDS011;44439;47.924;10.198;2022-10-16T01:45:01;5.13;;;1.30;;
58669;SDS011;44439;47.924;10.198;2022-10-16T01:47:48;4.30;;;1.10;;
58669;SDS011;44439;47.924;10.198;2022-10-16T01:50:36;1.38;;;0.90;;
58669;SDS011;44439;47.924;10.198;2022-10-16T01:53:24;2.15;;;1.10;;
58669;SDS011;44439;47.924;10.198;2022-10-16T01:56:10;1.70;;;0.70;;
58669;SDS011;44439;47.924;10.198;2022-10-16T01:59:00;4.32;;;1.10;;
58669;SDS011;44439;47.924;10.198;2022-10-16T02:01:49;3.92;;;1.15;;
58669;SDS011;44439;47.924;10.198;2022-10-16T02:05:00;4.55;;;1.23;;
58669;SDS011;44439;47.924;10.198;2022-10-16T02:07:44;1.60;;;1.17;;
58669;SDS011;44439;47.924;10.198;2022-10-16T02:10:30;6.80;;;0.98;;
58669;SDS011;44439;47.924;10.198;2022-10-16T02:13:24;1.60;;;1.40;;
58669;SDS011;44439;47.924;10.198;2022-10-16T02:16:13;4.80;;;1.15;;
58669;SDS011;44439;47.924;10.198;2022-10-16T02:18:59;2.03;;;1.30;;
58669;SDS011;44439;47.924;10.198;2022-10-16T02:21:56;3.90;;;1.13;;
58669;SDS011;44439;47.924;10.198;2022-10-16T02:24:46;3.33;;;1.10;;
58669;SDS011;44439;47.924;10.198;2022-10-16T02:27:54;2.33;;;1.25;;
58669;SDS011;44439;47.924;10.198;2022-10-16T02:31:04;3.97;;;1.00;;
58669;SDS011;44439;47.924;10.198;2022-10-16T02:33:50;3.45;;;1.00;;
58669;SDS011;44439;47.924;10.198;2022-10-16T02:36:36;2.95;;;1.20;;
58669;SDS011;44439;47.924;10.198;2022-10-16T02:39:23;2.22;;;1.17;;
58669;SDS011;44439;47.924;10.198;2022-10-16T02:42:12;2.75;;;1.20;;
58669;SDS011;44439;47.924;10.198;2022-10-16T02:44:58;7.40;;;1.65;;
58669;SDS011;44439;47.924;10.198;2022-10-16T02:47:44;3.88;;;1.10;;
58669;SDS011;44439;47.924;10.198;2022-10-16T02:50:30;1.95;;;1.30;;
58669;SDS011;44439;47.924;10.198;2022-10-16T02:53:15;1.63;;;1.10;;
58669;SDS011;44439;47.924;10.198;2022-10-16T02:56:01;1.30;;;1.05;;
58669;SDS011;44439;47.924;10.198;2022-10-16T02:58:47;3.50;;;1.50;;
58669;SDS011;44439;47.924;10.198;2022-10-16T03:01:33;5.07;;;1.30;;
58669;SDS011;44439;47.924;10.198;2022-10-16T03:04:19;4.15;;;1.20;;
58669;SDS011;44439;47.924;10.198;2022-10-16T03:07:07;3.22;;;1.00;;
58669;SDS011;44439;47.924;10.198;2022-10-16T03:09:52;6.47;;;1.10;;
58669;SDS011;44439;47.924;10.198;2022-10-16T03:12:39;2.17;;;1.08;;
58669;SDS011;44439;47.924;10.198;2022-10-16T03:15:25;2.55;;;0.90;;
58669;SDS011;44439;47.924;10.198;2022-10-16T03:18:11;1.55;;;0.80;;
58669;SDS011;44439;47.924;10.198;2022-10-16T03:20:56;1.20;;;0.93;;
58669;SDS011;44439;47.924;10.198;2022-10-16T03:23:42;4.22;;;1.55;;
58669;SDS011;44439;47.924;10.198;2022-10-16T03:26:28;3.90;;;1.48;;
58669;SDS011;44439;47.924;10.198;2022-10-16T03:29:13;2.30;;;1.42;;
58669;SDS011;44439;47.924;10.198;2022-10-16T03:31:59;7.43;;;1.45;;
58669;SDS011;44439;47.924;10.198;2022-10-16T03:34:45;3.08;;;1.00;;
58669;SDS011;44439;47.924;10.198;2022-10-16T03:37:31;3.10;;;0.82;;
58669;SDS011;44439;47.924;10.198;2022-10-16T03:40:17;3.42;;;0.93;;
58669;SDS011;44439;47.924;10.198;2022-10-16T03:43:03;4.60;;;0.80;;
58669;SDS011;44439;47.924;10.198;2022-10-16T03:45:50;3.88;;;0.90;;
58669;SDS011;44439;47.924;10.198;2022-10-16T03:48:36;2.40;;;1.23;;
58669;SDS011;44439;47.924;10.198;2022-10-16T03:51:22;2.92;;;0.77;;
58669;SDS011;44439;47.924;10.198;2022-10-16T03:54:09;4.68;;;1.17;;
58669;SDS011;44439;47.924;10.198;2022-10-16T03:56:55;3.03;;;0.95;;
58669;SDS011;44439;47.924;10.198;2022-10-16T03:59:40;1.20;;;0.93;;
58669;SDS011;44439;47.924;10.198;2022-10-16T04:02:26;3.70;;;0.95;;
58669;SDS011;44439;47.924;10.198;2022-10-16T04:05:12;5.05;;;0.90;;
58669;SDS011;44439;47.924;10.198;2022-10-16T04:07:57;3.00;;;0.80;;
58669;SDS011;44439;47.924;10.198;2022-10-16T04:10:43;3.75;;;0.90;;
58669;SDS011;44439;47.924;10.198;2022-10-16T04:13:29;2.67;;;1.23;;
58669;SDS011;44439;47.924;10.198;2022-10-16T04:16:15;1.20;;;0.70;;
58669;SDS011;44439;47.924;10.198;2022-10-16T04:19:00;2.13;;;0.77;;
58669;SDS011;44439;47.924;10.198;2022-10-16T04:21:46;4.78;;;0.70;;
58669;SDS011;44439;47.924;10.198;2022-10-16T04:24:32;2.28;;;0.77;;
58669;SDS011;44439;47.924;10.198;2022-10-16T04:27:17;3.30;;;0.80;;
58669;SDS011;44439;47.924;10.198;2022-10-16T04:30:03;3.70;;;1.23;;
58669;SDS011;44439;47.924;10.198;2022-10-16T04:32:52;5.22;;;0.80;;
58669;SDS011;44439;47.924;10.198;2022-10-16T04:35:38;4.35;;;0.82;;
58669;SDS011;44439;47.924;10.198;2022-10-16T04:38:24;2.97;;;0.82;;
58669;SDS011;44439;47.924;10.198;2022-10-16T04:41:10;3.47;;;0.82;;
58669;SDS011;44439;47.924;10.198;2022-10-16T04:43:55;2.05;;;0.65;;
58669;SDS011;44439;47.924;10.198;2022-10-16T04:46:41;2.85;;;0.90;;
58669;SDS011;44439;47.924;10.198;2022-10-16T04:49:27;6.25;;;0.70;;
58669;SDS011;44439;47.924;10.198;2022-10-16T04:52:13;1.17;;;0.65;;
58669;SDS011;44439;47.924;10.198;2022-10-16T04:54:58;1.95;;;0.70;;
58669;SDS011;44439;47.924;10.198;2022-10-16T04:57:47;1.67;;;0.60;;
58669;SDS011;44439;47.924;10.198;2022-10-16T05:00:32;3.38;;;0.60;;
58669;SDS011;44439;47.924;10.198;2022-10-16T05:03:18;3.33;;;0.73;;
58669;SDS011;44439;47.924;10.198;2022-10-16T05:06:07;7.40;;;0.80;;
58669;SDS011;44439;47.924;10.198;2022-10-16T05:08:53;2.97;;;0.70;;
58669;SDS011;44439;47.924;10.198;2022-10-16T05:11:39;3.20;;;0.65;;
58669;SDS011;44439;47.924;10.198;2022-10-16T05:14:24;1.85;;;0.50;;
58669;SDS011;44439;47.924;10.198;2022-10-16T05:17:10;2.78;;;0.88;;
58669;SDS011;44439;47.924;10.198;2022-10-16T05:19:56;4.57;;;0.70;;
58669;SDS011;44439;47.924;10.198;2022-10-16T05:22:41;4.13;;;0.70;;
58669;SDS011;44439;47.924;10.198;2022-10-16T05:25:27;1.70;;;0.60;;
58669;SDS011;44439;47.924;10.198;2022-10-16T05:28:13;1.98;;;0.60;;
58669;SDS011;44439;47.924;10.198;2022-10-16T05:30:58;1.63;;;0.55;;
58669;SDS011;44439;47.924;10.198;2022-10-16T05:33:44;3.10;;;0.40;;
58669;SDS011;44439;47.924;10.198;2022-10-16T05:36:30;0.98;;;0.47;;
58669;SDS011;44439;47.924;10.198;2022-10-16T05:39:16;1.95;;;0.50;;
58669;SDS011;44439;47.924;10.198;2022-10-16T05:42:02;3.20;;;0.52;;
58669;SDS011;44439;47.924;10.198;2022-10-16T05:44:48;5.57;;;0.63;;
58669;SDS011;44439;47.924;10.198;2022-10-16T05:47:33;3.42;;;0.60;;
58669;SDS011;44439;47.924;10.198;2022-10-16T05:50:19;6.28;;;0.80;;
58669;SDS011;44439;47.924;10.198;2022-10-16T05:53:05;2.28;;;0.45;;
58669;SDS011;44439;47.924;10.198;2022-10-16T05:55:54;2.50;;;0.80;;
58669;SDS011;44439;47.924;10.198;2022-10-16T05:58:40;4.47;;;0.95;;
58669;SDS011;44439;47.924;10.198;2022-10-16T06:01:26;4.53;;;1.00;;
58669;SDS011;44439;47.924;10.198;2022-10-16T06:04:12;2.53;;;0.70;;
58669;SDS011;44439;47.924;10.198;2022-10-16T06:06:58;1.33;;;0.75;;
58669;SDS011;44439;47.924;10.198;2022-10-16T06:09:49;9.40;;;1.38;;
58669;SDS011;44439;47.924;10.198;2022-10-16T06:12:35;1.65;;;1.50;;
58669;SDS011;44439;47.924;10.198;2022-10-16T06:15:21;1.23;;;0.90;;
58669;SDS011;44439;47.924;10.198;2022-10-16T06:18:06;2.30;;;0.77;;
58669;SDS011;44439;47.924;10.198;2022-10-16T06:20:53;0.90;;;0.60;;
58669;SDS011;44439;47.924;10.198;2022-10-16T06:23:38;1.88;;;0.90;;
58669;SDS011;44439;47.924;10.198;2022-10-16T06:26:25;2.13;;;0.80;;
58669;SDS011;44439;47.924;10.198;2022-10-16T06:29:12;5.65;;;0.70;;
58669;SDS011;44439;47.924;10.198;2022-10-16T06:31:58;3.40;;;0.77;;
58669;SDS011;44439;47.924;10.198;2022-10-16T06:34:43;2.60;;;0.70;;
58669;SDS011;44439;47.924;10.198;2022-10-16T06:37:29;2.08;;;0.80;;
58669;SDS011;44439;47.924;10.198;2022-10-16T06:40:15;2.67;;;0.70;;
58669;SDS011;44439;47.924;10.198;2022-10-16T06:43:01;4.72;;;0.90;;
58669;SDS011;44439;47.924;10.198;2022-10-16T06:45:52;1.77;;;1.05;;
58669;SDS011;44439;47.924;10.198;2022-10-16T06:48:39;5.35;;;1.60;;
58669;SDS011;44439;47.924;10.198;2022-10-16T06:51:25;7.95;;;1.10;;
58669;SDS011;44439;47.924;10.198;2022-10-16T06:54:10;1.65;;;0.70;;
58669;SDS011;44439;47.924;10.198;2022-10-16T06:56:56;1.70;;;1.10;;
58669;SDS011;44439;47.924;10.198;2022-10-16T06:59:42;1.60;;;1.00;;
58669;SDS011;44439;47.924;10.198;2022-10-16T07:02:27;3.08;;;1.10;;
58669;SDS011;44439;47.924;10.198;2022-10-16T07:05:13;2.85;;;1.10;;
58669;SDS011;44439;47.924;10.198;2022-10-16T07:07:59;6.13;;;1.25;;
58669;SDS011;44439;47.924;10.198;2022-10-16T07:10:44;2.97;;;1.50;;
58669;SDS011;44439;47.924;10.198;2022-10-16T07:13:32;2.10;;;1.02;;
58669;SDS011;44439;47.924;10.198;2022-10-16T07:16:20;1.80;;;0.88;;
58669;SDS011;44439;47.924;10.198;2022-10-16T07:19:07;1.92;;;0.63;;
58669;SDS011;44439;47.924;10.198;2022-10-16T07:21:54;3.20;;;1.00;;
58669;SDS011;44439;47.924;10.198;2022-10-16T07:24:39;1.42;;;0.82;;
58669;SDS011;44439;47.924;10.198;2022-10-16T07:27:25;2.28;;;1.20;;
58669;SDS011;44439;47.924;10.198;2022-10-16T07:30:11;1.40;;;0.80;;
58669;SDS011;44439;47.924;10.198;2022-10-16T07:32:57;3.55;;;1.23;;
58669;SDS011;44439;47.924;10.198;2022-10-16T07:35:53;4.75;;;1.40;;
58669;SDS011;44439;47.924;10.198;2022-10-16T07:38:39;4.43;;;1.10;;
58669;SDS011;44439;47.924;10.198;2022-10-16T07:41:25;3.25;;;1.30;;
58669;SDS011;44439;47.924;10.198;2022-10-16T07:44:10;3.00;;;1.50;;
58669;SDS011;44439;47.924;10.198;2022-10-16T07:46:56;2.67;;;1.13;;
58669;SDS011;44439;47.924;10.198;2022-10-16T07:49:42;2.25;;;1.23;;
58669;SDS011;44439;47.924;10.198;2022-10-16T07:52:28;3.50;;;1.08;;
58669;SDS011;44439;47.924;10.198;2022-10-16T07:55:14;2.72;;;0.90;;
58669;SDS011;44439;47.924;10.198;2022-10-16T07:57:59;1.95;;;1.15;;
58669;SDS011;44439;47.924;10.198;2022-10-16T08:00:45;3.65;;;1.20;;
58669;SDS011;44439;47.924;10.198;2022-10-16T08:03:31;1.13;;;1.02;;
58669;SDS011;44439;47.924;10.198;2022-10-16T08:06:17;2.75;;;0.70;;
58669;SDS011;44439;47.924;10.198;2022-10-16T08:09:04;1.27;;;0.65;;
58669;SDS011;44439;47.924;10.198;2022-10-16T08:11:50;2.15;;;0.68;;
58669;SDS011;44439;47.924;10.198;2022-10-16T08:14:37;2.13;;;0.70;;
58669;SDS011;44439;47.924;10.198;2022-10-16T08:17:22;1.48;;;0.80;;
58669;SDS011;44439;47.924;10.198;2022-10-16T08:20:08;1.50;;;0.77;;
58669;SDS011;44439;47.924;10.198;2022-10-16T08:22:54;2.08;;;0.70;;
58669;SDS011;44439;47.924;10.198;2022-10-16T08:25:40;2.30;;;0.75;;
58669;SDS011;44439;47.924;10.198;2022-10-16T08:28:26;1.63;;;0.68;;
58669;SDS011;44439;47.924;10.198;2022-10-16T08:31:15;2.72;;;0.60;;
58669;SDS011;44439;47.924;10.198;2022-10-16T08:34:01;2.13;;;0.80;;
58669;SDS011;44439;47.924;10.198;2022-10-16T08:36:46;0.90;;;0.50;;
58669;SDS011;44439;47.924;10.198;2022-10-16T08:39:32;0.45;;;0.45;;
58669;SDS011;44439;47.924;10.198;2022-10-16T08:42:34;2.53;;;0.60;;
58669;SDS011;44439;47.924;10.198;2022-10-16T08:45:48;1.77;;;0.70;;
58669;SDS011;44439;47.924;10.198;2022-10-16T08:51:37;1.45;;;0.38;;
58669;SDS011;44439;47.924;10.198;2022-10-16T08:54:28;1.77;;;0.57;;
58669;SDS011;44439;47.924;10.198;2022-10-16T08:57:19;2.92;;;0.68;;
58669;SDS011;44439;47.924;10.198;2022-10-16T09:00:11;1.50;;;0.60;;
58669;SDS011;44439;47.924;10.198;2022-10-16T09:03:04;1.88;;;0.70;;
58669;SDS011;44439;47.924;10.198;2022-10-16T09:12:06;1.50;;;0.60;;
58669;SDS011;44439;47.924;10.198;2022-10-16T09:18:03;1.33;;;0.80;;
58669;SDS011;44439;47.924;10.198;2022-10-16T09:23:41;1.13;;;0.63;;
58669;SDS011;44439;47.924;10.198;2022-10-16T09:26:27;2.28;;;0.70;;
58669;SDS011;44439;47.924;10.198;2022-10-16T09:29:16;2.45;;;0.70;;
58669;SDS011;44439;47.924;10.198;2022-10-16T09:32:12;5.22;;;0.63;;
58669;SDS011;44439;47.924;10.198;2022-10-16T09:35:00;0.73;;;0.60;;
58669;SDS011;44439;47.924;10.198;2022-10-16T09:37:47;2.00;;;1.20;;
58669;SDS011;44439;47.924;10.198;2022-10-16T09:40:36;1.33;;;0.80;;
58669;SDS011;44439;47.924;10.198;2022-10-16T09:43:24;2.65;;;0.90;;
58669;SDS011;44439;47.924;10.198;2022-10-16T09:46:30;5.80;;;2.60;;
58669;SDS011;44439;47.924;10.198;2022-10-16T09:49:24;3.05;;;1.70;;
58669;SDS011;44439;47.924;10.198;2022-10-16T09:52:12;2.75;;;2.13;;
58669;SDS011;44439;47.924;10.198;2022-10-16T09:54:59;4.90;;;2.97;;
58669;SDS011;44439;47.924;10.198;2022-10-16T09:57:58;4.70;;;1.63;;
58669;SDS011;44439;47.924;10.198;2022-10-16T10:00:51;2.75;;;1.10;;
58669;SDS011;44439;47.924;10.198;2022-10-16T10:03:38;1.50;;;1.30;;
58669;SDS011;44439;47.924;10.198;2022-10-16T10:06:26;2.95;;;0.60;;
58669;SDS011;44439;47.924;10.198;2022-10-16T10:09:21;1.35;;;0.70;;
58669;SDS011;44439;47.924;10.198;2022-10-16T10:12:27;1.45;;;0.50;;
58669;SDS011;44439;47.924;10.198;2022-10-16T10:15:13;0.73;;;0.50;;
58669;SDS011;44439;47.924;10.198;2022-10-16T10:18:16;0.90;;;0.50;;
58669;SDS011;44439;47.924;10.198;2022-10-16T10:21:12;0.65;;;0.55;;
58669;SDS011;44439;47.924;10.198;2022-10-16T10:23:59;2.58;;;0.50;;
58669;SDS011;44439;47.924;10.198;2022-10-16T10:26:57;2.25;;;0.60;;
58669;SDS011;44439;47.924;10.198;2022-10-16T10:45:18;1.75;;;0.60;;
58669;SDS011;44439;47.924;10.198;2022-10-16T10:54:34;1.00;;;0.60;;
58669;SDS011;44439;47.924;10.198;2022-10-16T11:10:15;0.85;;;0.47;;
58669;SDS011;44439;47.924;10.198;2022-10-16T11:13:10;0.68;;;0.40;;
58669;SDS011;44439;47.924;10.198;2022-10-16T11:16:03;0.40;;;0.30;;
58669;SDS011;44439;47.924;10.198;2022-10-16T11:19:21;0.90;;;0.50;;
58669;SDS011;44439;47.924;10.198;2022-10-16T11:22:19;1.40;;;0.43;;
58669;SDS011;44439;47.924;10.198;2022-10-16T11:25:24;0.82;;;0.50;;
58669;SDS011;44439;47.924;10.198;2022-10-16T11:31:22;0.60;;;0.47;;
58669;SDS011;44439;47.924;10.198;2022-10-16T11:37:12;1.95;;;0.30;;
58669;SDS011;44439;47.924;10.198;2022-10-16T11:40:03;2.00;;;0.50;;
58669;SDS011;44439;47.924;10.198;2022-10-16T11:43:46;1.80;;;0.60;;
58669;SDS011;44439;47.924;10.198;2022-10-16T11:46:21;1.60;;;0.90;;
58669;SDS011;44439;47.924;10.198;2022-10-16T11:55:18;0.40;;;0.40;;
58669;SDS011;44439;47.924;10.198;2022-10-16T11:58:07;0.30;;;0.30;;
58669;SDS011;44439;47.924;10.198;2022-10-16T12:00:57;2.08;;;0.70;;
58669;SDS011;44439;47.924;10.198;2022-10-16T12:06:57;1.08;;;0.80;;
58669;SDS011;44439;47.924;10.198;2022-10-16T12:09:48;1.33;;;0.70;;
58669;SDS011;44439;47.924;10.198;2022-10-16T12:15:22;1.90;;;0.47;;
58669;SDS011;44439;47.924;10.198;2022-10-16T12:18:20;3.38;;;0.85;;
58669;SDS011;44439;47.924;10.198;2022-10-16T12:21:06;2.40;;;0.40;;
58669;SDS011;44439;47.924;10.198;2022-10-16T12:23:54;1.75;;;0.50;;
58669;SDS011;44439;47.924;10.198;2022-10-16T12:26:40;2.17;;;0.70;;
58669;SDS011;44439;47.924;10.198;2022-10-16T12:32:33;0.40;;;0.40;;
58669;SDS011;44439;47.924;10.198;2022-10-16T12:35:24;0.60;;;0.40;;
58669;SDS011;44439;47.924;10.198;2022-10-16T12:38:19;1.15;;;0.40;;
58669;SDS011;44439;47.924;10.198;2022-10-16T12:41:07;1.73;;;0.65;;
58669;SDS011;44439;47.924;10.198;2022-10-16T12:43:54;3.42;;;0.60;;
58669;SDS011;44439;47.924;10.198;2022-10-16T12:46:40;1.95;;;1.08;;
58669;SDS011;44439;47.924;10.198;2022-10-16T12:49:30;0.88;;;0.38;;
58669;SDS011;44439;47.924;10.198;2022-10-16T12:52:37;1.00;;;0.50;;
58669;SDS011;44439;47.924;10.198;2022-10-16T12:55:23;0.70;;;0.50;;
58669;SDS011;44439;47.924;10.198;2022-10-16T12:58:19;0.95;;;0.73;;
58669;SDS011;44439;47.924;10.198;2022-10-16T13:01:34;1.88;;;0.50;;
58669;SDS011;44439;47.924;10.198;2022-10-16T13:14:51;0.43;;;0.40;;
58669;SDS011;44439;47.924;10.198;2022-10-16T13:17:45;1.60;;;0.38;;
58669;SDS011;44439;47.924;10.198;2022-10-16T13:23:58;0.40;;;0.40;;
58669;SDS011;44439;47.924;10.198;2022-10-16T13:27:07;1.02;;;0.50;;
58669;SDS011;44439;47.924;10.198;2022-10-16T13:30:10;2.75;;;0.63;;
58669;SDS011;44439;47.924;10.198;2022-10-16T13:33:04;0.95;;;0.60;;
58669;SDS011;44439;47.924;10.198;2022-10-16T13:35:54;2.92;;;0.60;;
58669;SDS011;44439;47.924;10.198;2022-10-16T13:38:41;1.00;;;0.55;;
58669;SDS011;44439;47.924;10.198;2022-10-16T13:41:26;3.63;;;0.90;;
58669;SDS011;44439;47.924;10.198;2022-10-16T13:44:13;0.60;;;0.40;;
58669;SDS011;44439;47.924;10.198;2022-10-16T13:47:02;4.68;;;0.70;;
58669;SDS011;44439;47.924;10.198;2022-10-16T13:50:02;3.45;;;0.40;;
58669;SDS011;44439;47.924;10.198;2022-10-16T13:52:50;3.08;;;1.30;;
58669;SDS011;44439;47.924;10.198;2022-10-16T13:55:36;1.73;;;1.15;;
58669;SDS011;44439;47.924;10.198;2022-10-16T13:58:22;2.10;;;0.55;;
58669;SDS011;44439;47.924;10.198;2022-10-16T14:01:18;1.52;;;0.60;;
58669;SDS011;44439;47.924;10.198;2022-10-16T14:04:06;3.60;;;0.90;;
58669;SDS011;44439;47.924;10.198;2022-10-16T14:06:53;10.65;;;1.25;;
58669;SDS011;44439;47.924;10.198;2022-10-16T14:09:39;3.60;;;1.15;;
58669;SDS011;44439;47.924;10.198;2022-10-16T14:12:24;7.03;;;1.83;;
58669;SDS011;44439;47.924;10.198;2022-10-16T14:15:17;3.38;;;1.00;;
58669;SDS011;44439;47.924;10.198;2022-10-16T14:18:03;5.65;;;0.90;;
58669;SDS011;44439;47.924;10.198;2022-10-16T14:20:49;1.15;;;0.55;;
58669;SDS011;44439;47.924;10.198;2022-10-16T14:23:36;4.57;;;0.95;;
58669;SDS011;44439;47.924;10.198;2022-10-16T14:26:24;1.35;;;0.60;;
58669;SDS011;44439;47.924;10.198;2022-10-16T14:29:13;3.58;;;0.80;;
58669;SDS011;44439;47.924;10.198;2022-10-16T14:32:04;3.42;;;0.85;;
58669;SDS011;44439;47.924;10.198;2022-10-16T14:34:53;2.10;;;0.68;;
58669;SDS011;44439;47.924;10.198;2022-10-16T14:37:39;1.95;;;0.55;;
58669;SDS011;44439;47.924;10.198;2022-10-16T14:40:32;2.03;;;0.57;;
58669;SDS011;44439;47.924;10.198;2022-10-16T14:43:38;2.47;;;0.80;;
58669;SDS011;44439;47.924;10.198;2022-10-16T14:46:29;1.17;;;0.55;;
58669;SDS011;44439;47.924;10.198;2022-10-16T14:49:18;4.20;;;0.63;;
58669;SDS011;44439;47.924;10.198;2022-10-16T14:52:08;0.93;;;0.68;;
58669;SDS011;44439;47.924;10.198;2022-10-16T14:54:55;2.15;;;0.60;;
58669;SDS011;44439;47.924;10.198;2022-10-16T14:57:42;2.85;;;0.65;;
58669;SDS011;44439;47.924;10.198;2022-10-16T15:00:28;4.35;;;1.38;;
58669;SDS011;44439;47.924;10.198;2022-10-16T15:03:14;14.68;;;3.97;;
58669;SDS011;44439;47.924;10.198;2022-10-16T15:06:00;6.05;;;2.75;;
58669;SDS011;44439;47.924;10.198;2022-10-16T15:08:45;5.20;;;1.90;;
58669;SDS011;44439;47.924;10.198;2022-10-16T15:11:31;4.35;;;1.67;;
58669;SDS011;44439;47.924;10.198;2022-10-16T15:14:17;1.40;;;1.10;;
58669;SDS011;44439;47.924;10.198;2022-10-16T15:17:03;4.13;;;1.40;;
58669;SDS011;44439;47.924;10.198;2022-10-16T15:19:49;6.78;;;1.50;;
58669;SDS011;44439;47.924;10.198;2022-10-16T15:22:36;6.88;;;2.00;;
58669;SDS011;44439;47.924;10.198;2022-10-16T15:25:38;5.90;;;1.77;;
58669;SDS011;44439;47.924;10.198;2022-10-16T15:28:35;6.90;;;1.05;;
58669;SDS011;44439;47.924;10.198;2022-10-16T15:31:23;4.72;;;1.70;;
58669;SDS011;44439;47.924;10.198;2022-10-16T15:34:09;2.35;;;1.45;;
58669;SDS011;44439;47.924;10.198;2022-10-16T15:36:55;2.15;;;1.40;;
58669;SDS011;44439;47.924;10.198;2022-10-16T15:39:44;5.50;;;1.33;;
58669;SDS011;44439;47.924;10.198;2022-10-16T15:42:33;3.30;;;1.15;;
58669;SDS011;44439;47.924;10.198;2022-10-16T15:45:19;5.82;;;0.90;;
58669;SDS011;44439;47.924;10.198;2022-10-16T15:48:05;3.70;;;1.05;;
58669;SDS011;44439;47.924;10.198;2022-10-16T15:50:51;7.10;;;1.08;;
58669;SDS011;44439;47.924;10.198;2022-10-16T15:53:37;7.90;;;1.65;;
58669;SDS011;44439;47.924;10.198;2022-10-16T15:56:23;6.38;;;1.75;;
58669;SDS011;44439;47.924;10.198;2022-10-16T15:59:10;10.98;;;1.80;;
58669;SDS011;44439;47.924;10.198;2022-10-16T16:01:58;4.55;;;1.40;;
58669;SDS011;44439;47.924;10.198;2022-10-16T16:04:43;13.32;;;1.83;;
58669;SDS011;44439;47.924;10.198;2022-10-16T16:07:32;4.90;;;1.58;;
58669;SDS011;44439;47.924;10.198;2022-10-16T16:10:18;8.23;;;3.13;;
58669;SDS011;44439;47.924;10.198;2022-10-16T16:13:06;5.45;;;2.35;;
58669;SDS011;44439;47.924;10.198;2022-10-16T16:15:51;4.45;;;1.15;;
58669;SDS011;44439;47.924;10.198;2022-10-16T16:18:37;10.65;;;5.68;;
58669;SDS011;44439;47.924;10.198;2022-10-16T16:21:23;9.27;;;5.05;;
58669;SDS011;44439;47.924;10.198;2022-10-16T16:24:09;6.05;;;2.92;;
58669;SDS011;44439;47.924;10.198;2022-10-16T16:26:54;3.58;;;1.90;;
58669;SDS011;44439;47.924;10.198;2022-10-16T16:29:40;4.28;;;2.22;;
58669;SDS011;44439;47.924;10.198;2022-10-16T16:32:26;5.03;;;1.90;;
58669;SDS011;44439;47.924;10.198;2022-10-16T16:35:12;4.00;;;1.92;;
58669;SDS011;44439;47.924;10.198;2022-10-16T16:37:57;4.53;;;1.27;;
58669;SDS011;44439;47.924;10.198;2022-10-16T16:40:43;3.08;;;1.30;;
58669;SDS011;44439;47.924;10.198;2022-10-16T16:43:30;2.13;;;0.90;;
58669;SDS011;44439;47.924;10.198;2022-10-16T16:46:16;6.80;;;2.65;;
58669;SDS011;44439;47.924;10.198;2022-10-16T16:49:16;7.57;;;3.40;;
58669;SDS011;44439;47.924;10.198;2022-10-16T16:52:08;5.07;;;1.90;;
58669;SDS011;44439;47.924;10.198;2022-10-16T16:55:00;3.25;;;1.42;;
58669;SDS011;44439;47.924;10.198;2022-10-16T16:57:50;2.42;;;1.10;;
58669;SDS011;44439;47.924;10.198;2022-10-16T17:00:44;9.43;;;1.45;;
58669;SDS011;44439;47.924;10.198;2022-10-16T17:03:33;7.65;;;1.13;;
58669;SDS011;44439;47.924;10.198;2022-10-16T17:06:26;2.08;;;0.80;;
58669;SDS011;44439;47.924;10.198;2022-10-16T17:09:15;5.15;;;1.02;;
58669;SDS011;44439;47.924;10.198;2022-10-16T17:12:03;3.15;;;1.00;;
58669;SDS011;44439;47.924;10.198;2022-10-16T17:14:50;2.78;;;1.10;;
58669;SDS011;44439;47.924;10.198;2022-10-16T17:17:52;5.10;;;1.10;;
58669;SDS011;44439;47.924;10.198;2022-10-16T17:20:38;1.85;;;1.00;;
58669;SDS011;44439;47.924;10.198;2022-10-16T17:23:29;2.72;;;1.35;;
58669;SDS011;44439;47.924;10.198;2022-10-16T17:26:16;7.90;;;1.30;;
58669;SDS011;44439;47.924;10.198;2022-10-16T17:29:12;3.83;;;1.60;;
58669;SDS011;44439;47.924;10.198;2022-10-16T17:31:59;4.03;;;1.75;;
58669;SDS011;44439;47.924;10.198;2022-10-16T17:34:56;4.55;;;1.88;;
58669;SDS011;44439;47.924;10.198;2022-10-16T17:37:45;2.47;;;1.48;;
58669;SDS011;44439;47.924;10.198;2022-10-16T17:40:36;2.80;;;1.30;;
58669;SDS011;44439;47.924;10.198;2022-10-16T17:43:32;2.78;;;0.85;;
58669;SDS011;44439;47.924;10.198;2022-10-16T17:46:20;1.35;;;0.98;;
58669;SDS011;44439;47.924;10.198;2022-10-16T17:49:08;4.22;;;1.00;;
58669;SDS011;44439;47.924;10.198;2022-10-16T17:51:58;1.63;;;0.90;;
58669;SDS011;44439;47.924;10.198;2022-10-16T17:54:49;1.17;;;0.77;;
58669;SDS011;44439;47.924;10.198;2022-10-16T17:57:46;3.90;;;0.90;;
58669;SDS011;44439;47.924;10.198;2022-10-16T18:00:32;3.67;;;0.90;;
58669;SDS011;44439;47.924;10.198;2022-10-16T18:03:20;2.97;;;0.90;;
58669;SDS011;44439;47.924;10.198;2022-10-16T18:06:06;2.55;;;1.08;;
58669;SDS011;44439;47.924;10.198;2022-10-16T18:08:53;2.13;;;1.05;;
58669;SDS011;44439;47.924;10.198;2022-10-16T18:11:41;1.95;;;0.80;;
58669;SDS011;44439;47.924;10.198;2022-10-16T18:14:28;3.72;;;0.90;;
58669;SDS011;44439;47.924;10.198;2022-10-16T18:17:18;1.00;;;0.80;;